Página principal
METAR-TAF:

METAR-TAF

Aeroportos :

Las Vegas, Nevada, Estados Unidos

Aeroporto Internacional de Las Vegas

latitude: 36-04-44N, longitude: 115-09-19W, altura: 663 m

Observação actual do tempo

O boletim foi feito há 17 minutos, às 12:56 UTC
Vento 4 kt de sudoeste
Temperatura 14°C
Humidade 38%
Pressão 1019 hPa
Visibilidade: 16.1 km
Céu limpo

METAR: KLAS 211256Z 23004KT 10SM CLR 14/00 A3010 RMK AO2 SLP176 T01440000

Hora: 06:13 (13:13 UTC)

Previsão

O boletim foi feito há 1 hora e 53 minutos, às 11:20 UTC
Previsão válida de 21 às 12 UTC a 22 às 18 UTC
Vento 6 kt de sudoeste
Visibilidade: 10 km
Céu limpo
A partir de 21 às 1900 UTC
Vento 6 kt de es-nordeste
Visibilidade: 10 km
Céu limpo
A partir de 22 às 0300 UTC
Vento 6 kt de su-sudoeste
Visibilidade: 10 km
Nuvens dispersasa uma altura de 25000 ft

TAF: KLAS 211120Z 2112/2218 22006KT P6SM SKC FM211900 07006KT P6SM SKC FM220300 20006KT P6SM SCT250

Observações e previsões do tempo de mais de 4000 aeroportos (mensagens METAR e TAF).

As estações disponíveis são os pontos amarelos e vermelhos sobre o mapa.

Mova o rato sobre o mapa para ver o nome da estação.

Depois clique no ponto para visualizar as observações e previsões meteorológicas.

Para alterar o mapa : clique nos botões verdes com uma cruz preta para aumentar o zoom; no botão verde com uma pitada de zoom; ou nas setas verdes para mapas adjacentes.


METAR-TAF: